VIA022 SVMI-SVMG
Flight info
| Callsign | VIA022 |
|---|---|
| Flight time | 0h 39m |
| Altitude | 21000 |
| Route | OSMAR2 OSMAR DCT DALSI W19 CHALO DCT VAREX |
| Aircraft | A346/H-SDE2E3FGHIJ3J4J5M1RWXY/LB1D1 |
Departure
| Time | 2026-05-04 16:16 |
|---|---|
| Airport | Maiquetía Simón Bolívar International Airport (SVMI) |
Arrival
| Time | 2026-05-04 16:56 |
|---|---|
| Airport | Del Caribe Santiago Mariño International Airport (SVMG) |
| Time | Latitude | Longitude | Altitude | Speed | Heading |
|---|---|---|---|---|---|
| 2026-05-04 14:46 | 10.60102 | -67.00554 | 318 ft | 0 kts | 359° |
| 2026-05-04 16:00 | 10.60098 | -67.00554 | 327 ft | 2 kts | 359° |
| 2026-05-04 16:00 | 10.60083 | -67.00554 | 328 ft | 2 kts | 359° |
| 2026-05-04 16:00 | 10.60068 | -67.00553 | 328 ft | 2 kts | 359° |
| 2026-05-04 16:01 | 10.60053 | -67.00553 | 328 ft | 2 kts | 359° |
| 2026-05-04 16:01 | 10.60043 | -67.00553 | 328 ft | 2 kts | 359° |
| 2026-05-04 16:01 | 10.60028 | -67.00552 | 328 ft | 2 kts | 340° |
| 2026-05-04 16:01 | 10.60015 | -67.00544 | 328 ft | 2 kts | 321° |
| 2026-05-04 16:02 | 10.60004 | -67.00534 | 329 ft | 2 kts | 306° |
| 2026-05-04 16:02 | 10.59997 | -67.00521 | 329 ft | 2 kts | 290° |
| 2026-05-04 16:02 | 10.59993 | -67.00498 | 329 ft | 1 kts | 267° |
| 2026-05-04 16:03 | 10.59993 | -67.00497 | 329 ft | 0 kts | 267° |
| 2026-05-04 16:08 | 10.59989 | -67.00690 | 324 ft | 14 kts | 270° |
| 2026-05-04 16:09 | 10.59980 | -67.00945 | 317 ft | 22 kts | 268° |
| 2026-05-04 16:09 | 10.59980 | -67.01201 | 307 ft | 13 kts | 294° |
| 2026-05-04 16:10 | 10.60187 | -67.01253 | 306 ft | 17 kts | 358° |
| 2026-05-04 16:11 | 10.60238 | -67.01255 | 306 ft | 0 kts | 357° |
| 2026-05-04 16:14 | 10.60309 | -67.01258 | 306 ft | 12 kts | 358° |
| 2026-05-04 16:15 | 10.60378 | -67.01154 | 309 ft | 0 kts | 86° |
| 2026-05-04 16:16 | 10.60391 | -67.00785 | 320 ft | 95 kts | 88° |
| 2026-05-04 16:16 | 10.60528 | -66.97120 | 1222 ft | 201 kts | 87° |
| 2026-05-04 16:17 | 10.60841 | -66.94132 | 2174 ft | 234 kts | 68° |
| 2026-05-04 16:18 | 10.62918 | -66.89431 | 3779 ft | 248 kts | 70° |
| 2026-05-04 16:18 | 10.63508 | -66.87796 | 4246 ft | 249 kts | 71° |
| 2026-05-04 16:19 | 10.65148 | -66.82693 | 5673 ft | 257 kts | 73° |
| 2026-05-04 16:19 | 10.66207 | -66.79203 | 6621 ft | 262 kts | 74° |
| 2026-05-04 16:20 | 10.67811 | -66.73856 | 8045 ft | 265 kts | 74° |
| 2026-05-04 16:20 | 10.68886 | -66.70254 | 9008 ft | 268 kts | 75° |
| 2026-05-04 16:21 | 10.70515 | -66.64785 | 10433 ft | 280 kts | 75° |
| 2026-05-04 16:22 | 10.71703 | -66.60783 | 11187 ft | 315 kts | 75° |
| 2026-05-04 16:22 | 10.73733 | -66.53891 | 12623 ft | 352 kts | 75° |
| 2026-05-04 16:23 | 10.75766 | -66.46660 | 14731 ft | 362 kts | 75° |
| 2026-05-04 16:24 | 10.78593 | -66.36641 | 17359 ft | 376 kts | 74° |
| 2026-05-04 16:25 | 10.80037 | -66.31498 | 18538 ft | 385 kts | 74° |
| 2026-05-04 16:26 | 10.83047 | -66.20787 | 20682 ft | 406 kts | 73° |
| 2026-05-04 16:26 | 10.85408 | -66.12421 | 20992 ft | 411 kts | 73° |
| 2026-05-04 16:27 | 10.86980 | -66.06846 | 20999 ft | 410 kts | 73° |
| 2026-05-04 16:28 | 10.89222 | -65.98495 | 20991 ft | 411 kts | 78° |
| 2026-05-04 16:28 | 10.89784 | -65.89774 | 20990 ft | 412 kts | 89° |
| 2026-05-04 16:29 | 10.89704 | -65.78146 | 20982 ft | 412 kts | 89° |
| 2026-05-04 16:30 | 10.89658 | -65.69406 | 20977 ft | 412 kts | 89° |
| 2026-05-04 16:31 | 10.89630 | -65.63592 | 20964 ft | 412 kts | 89° |
| 2026-05-04 16:31 | 10.89587 | -65.54834 | 20979 ft | 412 kts | 89° |
| 2026-05-04 16:32 | 10.89542 | -65.46128 | 20643 ft | 411 kts | 89° |
| 2026-05-04 16:33 | 10.89513 | -65.40378 | 19681 ft | 404 kts | 89° |
| 2026-05-04 16:33 | 10.89483 | -65.34735 | 18763 ft | 397 kts | 89° |
| 2026-05-04 16:34 | 10.89473 | -65.29172 | 17807 ft | 390 kts | 89° |
| 2026-05-04 16:34 | 10.89513 | -65.26455 | 17320 ft | 387 kts | 88° |
| 2026-05-04 16:35 | 10.89654 | -65.18340 | 15910 ft | 377 kts | 89° |
| 2026-05-04 16:35 | 10.89785 | -65.10412 | 14518 ft | 368 kts | 89° |
| 2026-05-04 16:36 | 10.89827 | -65.07816 | 14037 ft | 366 kts | 89° |
| 2026-05-04 16:36 | 10.89910 | -65.02694 | 13009 ft | 349 kts | 89° |
| 2026-05-04 16:37 | 10.89983 | -64.97942 | 12071 ft | 324 kts | 89° |
| 2026-05-04 16:37 | 10.90019 | -64.95715 | 11615 ft | 314 kts | 89° |
| 2026-05-04 16:37 | 10.90085 | -64.91383 | 10649 ft | 297 kts | 89° |
| 2026-05-04 16:38 | 10.90148 | -64.87277 | 9675 ft | 283 kts | 89° |
| 2026-05-04 16:39 | 10.90237 | -64.81485 | 8289 ft | 267 kts | 89° |
| 2026-05-04 16:39 | 10.90294 | -64.77760 | 7265 ft | 260 kts | 89° |
| 2026-05-04 16:40 | 10.90349 | -64.74223 | 6674 ft | 241 kts | 90° |
| 2026-05-04 16:40 | 10.90401 | -64.70844 | 6225 ft | 237 kts | 90° |
| 2026-05-04 16:41 | 10.90449 | -64.67466 | 5733 ft | 233 kts | 90° |
| 2026-05-04 16:41 | 10.90515 | -64.62690 | 4991 ft | 219 kts | 90° |
| 2026-05-04 16:42 | 10.90573 | -64.58155 | 4297 ft | 210 kts | 90° |
| 2026-05-04 16:43 | 10.90612 | -64.55187 | 3822 ft | 208 kts | 90° |
| 2026-05-04 16:43 | 10.90651 | -64.52296 | 3416 ft | 201 kts | 90° |
| 2026-05-04 16:43 | 10.90670 | -64.50887 | 3238 ft | 196 kts | 90° |
| 2026-05-04 16:44 | 10.90742 | -64.45425 | 2569 ft | 191 kts | 89° |
| 2026-05-04 16:45 | 10.90777 | -64.42718 | 2230 ft | 191 kts | 89° |
| 2026-05-04 16:46 | 10.90830 | -64.38683 | 2162 ft | 191 kts | 89° |
| 2026-05-04 16:46 | 10.90863 | -64.35982 | 2155 ft | 189 kts | 89° |
| 2026-05-04 16:47 | 10.90895 | -64.33305 | 2153 ft | 190 kts | 89° |
| 2026-05-04 16:47 | 10.90929 | -64.30612 | 2161 ft | 191 kts | 89° |
| 2026-05-04 16:48 | 10.90980 | -64.26562 | 2160 ft | 190 kts | 89° |
| 2026-05-04 16:48 | 10.90996 | -64.25214 | 2164 ft | 190 kts | 89° |
| 2026-05-04 16:49 | 10.91028 | -64.22528 | 2161 ft | 189 kts | 89° |
| 2026-05-04 16:49 | 10.91043 | -64.19857 | 2154 ft | 190 kts | 96° |
| 2026-05-04 16:50 | 10.89616 | -64.17747 | 2134 ft | 185 kts | 148° |
| 2026-05-04 16:50 | 10.87608 | -64.16290 | 2139 ft | 171 kts | 108° |
| 2026-05-04 16:51 | 10.87672 | -64.13940 | 2174 ft | 171 kts | 78° |
| 2026-05-04 16:51 | 10.87913 | -64.12801 | 2157 ft | 159 kts | 79° |
| 2026-05-04 16:51 | 10.88371 | -64.10665 | 2138 ft | 144 kts | 78° |
| 2026-05-04 16:52 | 10.88778 | -64.08725 | 2153 ft | 140 kts | 79° |
| 2026-05-04 16:52 | 10.88978 | -64.07755 | 2010 ft | 139 kts | 79° |
| 2026-05-04 16:53 | 10.89372 | -64.05837 | 1634 ft | 138 kts | 78° |
| 2026-05-04 16:53 | 10.89974 | -64.02882 | 1070 ft | 145 kts | 78° |
| 2026-05-04 16:54 | 10.90185 | -64.01872 | 872 ft | 144 kts | 78° |
| 2026-05-04 16:55 | 10.90989 | -63.97880 | 139 ft | 143 kts | 72° |
| 2026-05-04 16:55 | 10.91396 | -63.96020 | 97 ft | 103 kts | 83° |
| 2026-05-04 16:56 | 10.91534 | -63.95352 | 97 ft | 18 kts | 64° |
| 2026-05-04 16:56 | 10.91665 | -63.95522 | 97 ft | 16 kts | 261° |
| 2026-05-04 16:57 | 10.91640 | -63.95645 | 97 ft | 18 kts | 258° |
| 2026-05-04 16:57 | 10.91583 | -63.95931 | 97 ft | 22 kts | 259° |
| 2026-05-04 16:58 | 10.91494 | -63.96379 | 97 ft | 16 kts | 258° |
| 2026-05-04 16:58 | 10.91491 | -63.96463 | 97 ft | 10 kts | 307° |
| 2026-05-04 16:59 | 10.91558 | -63.96613 | 97 ft | 14 kts | 261° |
| 2026-05-04 17:00 | 10.91545 | -63.96815 | 97 ft | 0 kts | 329° |
| 2026-05-04 17:00 | 10.91576 | -63.96830 | 97 ft | 0 kts | 347° |